Terminal Aerodrome Forecast
Issued by NWS

Home | Current Version | Previous Version | Text Only | Print | Product List | Glossary On
Versions: 1 2 3 4 5 6 7 8 9 10 11 12 13 14 15 16 17 18 19 20 21 22 23 24 25 26
000
FTUS46 KSGX 251449 AAA
TAFSAN
TAF AMD
KSAN 251449Z 2515/2618 27007KT P6SM SCT025 BKN035
      TEMPO 2515/2518 VRB15KT -SHRA BKN022
     FM251900 27012G18KT P6SM SCT025 BKN040
     FM260230 28007KT P6SM BKN022=

USA.gov is the U.S. government's official web portal to all federal, state and local government web resources and services.